Laurel Fork, Virginia
Current Conditions -  °F | °C
As of 5:35 AM on Monday 20 Oct 2014 (Local Time) from KHLX Reporting Station
Clear Clear  
Wind Chill: 40°   Ceiling: Unl
Heat Index: 43°   Visibility: 10mi
Dew Point: 36°   Wind: 5mph
Humidity: 75%   Direction: 210°SSW
Pressure: 30.1"   Gusts: NA
Location:  36.72°N, 80.52°W
Report Text: KHLX 200935Z AUTO 21004KT 10SM CLR 06/02 A3010 RMK AO2 T00620020
Loading
Personal Weather Stations






























Interactive Weather Map
Tropical Storm Tracking
New forecast layout! Learn more

10-Day Weather Forecast

Advertisements
Track Severe Weather on mobile